Viola, Minnesota
Current Conditions -  °F | °C
As of 1:33 PM on Friday 21 Nov 2014 (Local Time) from K9MN Reporting Station
Clear Clear  
Wind Chill: 14°   Ceiling: Unl
Heat Index: 25°   Visibility: 10mi
Dew Point: 11°   Wind: 12mph
Humidity: 57%   Direction: 140°SE
Pressure: 30.13"   Gusts: 20mph
Location:  44.0209°N, 92.2585°W
Report Text: K9MN 211933Z AUTO 14010G17KT 120V180 10SM CLR M04/M11 A3013 RMK AO1 T10411115
Loading
Personal Weather Stations






























Interactive Weather Map New forecast layout! Learn more

10-Day Weather Forecast

Advertisements
Track Severe Weather on mobile